Time;durP1;ratioP1;P1;durP2;ratioP2;P2;SDS_P1;SDS_P2;PMS_P1;PMS_P2;Temp;Humidity;BMP_temperature;BMP_pressure;BME280_temperature;BME280_humidity;BME280_pressure;Samples;Min_cycle;Max_cycle;Signal;HPM_P1;HPM_P2
2022/03/04 00:02:06;;;;;;;40.97;21.00;;;;;;;;;;5013822;28;20552;-62
2022/03/04 00:04:37;;;;;;;35.45;17.60;;;;;;;;;;5032826;28;20032;-65
2022/03/04 00:07:03;;;;;;;51.97;23.20;;;;;;;;;;5055082;28;20397;-63
2022/03/04 00:09:30;;;;;;;50.53;23.90;;;;;;;;;;5058628;28;20153;-63
2022/03/04 00:11:56;;;;;;;45.17;21.65;;;;;;;;;;5067802;28;20036;-64
2022/03/04 00:14:22;;;;;;;78.03;34.65;;;;;;;;;;5056611;28;20029;-64
2022/03/04 00:16:48;;;;;;;67.32;33.85;;;;;;;;;;5042789;28;20128;-65
2022/03/04 00:19:14;;;;;;;136.15;67.30;;;;;;;;;;5071163;28;20056;-68
2022/03/04 00:21:41;;;;;;;187.70;92.47;;;;;;;;;;5070440;28;20100;-66
2022/03/04 00:24:08;;;;;;;74.15;32.88;;;;;;;;;;5068779;28;20048;-65
2022/03/04 00:26:34;;;;;;;66.40;29.75;;;;;;;;;;5047064;28;20101;-67
2022/03/04 00:29:01;;;;;;;44.58;24.00;;;;;;;;;;5052175;28;20036;-67
2022/03/04 00:31:27;;;;;;;43.92;21.08;;;;;;;;;;5052720;28;20100;-65
2022/03/04 00:33:53;;;;;;;30.42;13.77;;;;;;;;;;5052348;28;20470;-63
2022/03/04 00:36:23;;;;;;;29.08;14.07;;;;;;;;;;5051675;28;20112;-65
2022/03/04 00:38:53;;;;;;;30.30;14.18;;;;;;;;;;5060529;28;20082;-61
2022/03/04 00:41:20;;;;;;;28.40;12.60;;;;;;;;;;5056290;28;20037;-60
2022/03/04 00:43:46;;;;;;;28.35;12.80;;;;;;;;;;5049777;28;20074;-61
2022/03/04 00:46:13;;;;;;;25.05;11.23;;;;;;;;;;5054605;28;20029;-63
2022/03/04 00:48:40;;;;;;;27.88;11.20;;;;;;;;;;5051079;28;20029;-63
2022/03/04 00:51:06;;;;;;;26.20;11.00;;;;;;;;;;5053544;28;20028;-63
2022/03/04 00:53:32;;;;;;;26.60;10.85;;;;;;;;;;5051198;28;20035;-62
2022/03/04 00:55:58;;;;;;;30.23;11.32;;;;;;;;;;5059571;28;20100;-62
2022/03/04 00:58:24;;;;;;;29.05;10.88;;;;;;;;;;5061054;28;20029;-62
2022/03/04 01:00:50;;;;;;;29.35;10.65;;;;;;;;;;5057214;28;20029;-62
2022/03/04 01:03:16;;;;;;;25.55;10.27;;;;;;;;;;5055556;28;20177;-62
2022/03/04 01:05:43;;;;;;;23.63;10.18;;;;;;;;;;5057628;28;20017;-62
2022/03/04 01:08:09;;;;;;;24.65;10.35;;;;;;;;;;5059685;28;20029;-62
2022/03/04 01:10:35;;;;;;;27.40;10.27;;;;;;;;;;5071645;28;20025;-62
2022/03/04 01:13:01;;;;;;;23.88;10.10;;;;;;;;;;5066412;28;20029;-62
2022/03/04 01:15:27;;;;;;;22.80;9.70;;;;;;;;;;5037728;28;20061;-62
2022/03/04 01:17:55;;;;;;;25.42;9.93;;;;;;;;;;5046016;28;20486;-62
2022/03/04 01:20:21;;;;;;;23.33;9.68;;;;;;;;;;5045215;28;20040;-62
2022/03/04 01:22:47;;;;;;;26.23;10.35;;;;;;;;;;5053951;28;20021;-62
2022/03/04 01:25:13;;;;;;;23.02;9.60;;;;;;;;;;5044754;28;20629;-62
2022/03/04 01:27:39;;;;;;;22.63;10.00;;;;;;;;;;5038609;28;20021;-62
2022/03/04 01:30:06;;;;;;;27.92;10.05;;;;;;;;;;5054676;28;20081;-62
2022/03/04 01:32:32;;;;;;;23.40;10.25;;;;;;;;;;5041876;28;20044;-61
2022/03/04 01:34:58;;;;;;;24.67;10.05;;;;;;;;;;5033864;28;20469;-62
2022/03/04 01:37:25;;;;;;;24.00;9.57;;;;;;;;;;5033694;28;20087;-63
2022/03/04 01:39:51;;;;;;;22.80;10.18;;;;;;;;;;5034084;28;20040;-62
2022/03/04 01:42:17;;;;;;;23.60;9.63;;;;;;;;;;5034264;28;20445;-62
2022/03/04 01:44:43;;;;;;;22.42;9.65;;;;;;;;;;5034239;28;20025;-64
2022/03/04 01:47:09;;;;;;;22.15;9.77;;;;;;;;;;5048727;28;20166;-66
2022/03/04 01:49:36;;;;;;;22.35;9.60;;;;;;;;;;5040571;28;20084;-66
2022/03/04 01:52:02;;;;;;;22.98;9.93;;;;;;;;;;5036217;28;20167;-65
2022/03/04 01:54:28;;;;;;;23.90;9.57;;;;;;;;;;5035978;28;20029;-62
2022/03/04 01:56:54;;;;;;;22.23;9.23;;;;;;;;;;5035610;28;20056;-66
2022/03/04 01:59:20;;;;;;;23.58;9.93;;;;;;;;;;5047287;28;20044;-62
2022/03/04 02:01:46;;;;;;;24.02;9.98;;;;;;;;;;5041588;28;20037;-62
2022/03/04 02:04:13;;;;;;;22.95;9.88;;;;;;;;;;5036000;28;20029;-67
2022/03/04 02:06:39;;;;;;;22.60;9.75;;;;;;;;;;5035581;28;20064;-63
2022/03/04 02:09:05;;;;;;;21.25;9.05;;;;;;;;;;5035248;28;20037;-65
2022/03/04 02:11:31;;;;;;;21.83;9.77;;;;;;;;;;5039090;28;20479;-61
2022/03/04 02:13:57;;;;;;;21.95;9.48;;;;;;;;;;5035445;28;20123;-60
2022/03/04 02:16:26;;;;;;;22.10;9.55;;;;;;;;;;5041222;28;20433;-60
2022/03/04 02:18:52;;;;;;;22.65;9.50;;;;;;;;;;5045320;28;20026;-61
2022/03/04 02:21:20;;;;;;;22.27;9.75;;;;;;;;;;5055040;28;20061;-60
2022/03/04 02:23:47;;;;;;;21.42;9.35;;;;;;;;;;5054241;28;20017;-60
2022/03/04 02:26:13;;;;;;;23.60;9.90;;;;;;;;;;5055305;28;20274;-64
2022/03/04 02:28:39;;;;;;;21.95;9.52;;;;;;;;;;5054230;28;20461;-66
2022/03/04 02:31:05;;;;;;;22.95;9.88;;;;;;;;;;5054160;28;20182;-60
2022/03/04 02:33:31;;;;;;;24.17;10.40;;;;;;;;;;5053431;28;20055;-60
2022/03/04 02:35:57;;;;;;;22.45;9.82;;;;;;;;;;5052957;28;20388;-60
2022/03/04 02:38:23;;;;;;;23.30;10.32;;;;;;;;;;5051987;28;20493;-61
2022/03/04 02:40:49;;;;;;;23.17;9.70;;;;;;;;;;5052897;28;20028;-62
2022/03/04 02:43:15;;;;;;;22.63;9.52;;;;;;;;;;5053909;28;20508;-60
2022/03/04 02:45:41;;;;;;;23.40;10.00;;;;;;;;;;5054452;28;20482;-60
2022/03/04 02:48:07;;;;;;;22.30;9.82;;;;;;;;;;5053823;28;20036;-62
2022/03/04 02:50:34;;;;;;;25.17;10.40;;;;;;;;;;5054837;28;20036;-61
2022/03/04 02:53:00;;;;;;;23.58;10.77;;;;;;;;;;5054672;28;20052;-61
2022/03/04 02:55:26;;;;;;;24.15;9.88;;;;;;;;;;5053884;28;20051;-62
2022/03/04 02:57:52;;;;;;;22.50;10.35;;;;;;;;;;5053911;28;20421;-60
2022/03/04 03:00:18;;;;;;;22.00;9.75;;;;;;;;;;5054776;28;20144;-60
2022/03/04 03:02:45;;;;;;;23.48;10.38;;;;;;;;;;5053794;28;20029;-60
2022/03/04 03:05:11;;;;;;;22.63;10.05;;;;;;;;;;5054694;28;20485;-60
2022/03/04 03:07:37;;;;;;;21.92;9.93;;;;;;;;;;5054910;28;20048;-61
2022/03/04 03:10:04;;;;;;;23.27;10.68;;;;;;;;;;5054643;28;20048;-60
2022/03/04 03:12:30;;;;;;;23.08;10.40;;;;;;;;;;5054183;28;20021;-60
2022/03/04 03:14:56;;;;;;;25.52;10.30;;;;;;;;;;5054504;28;20025;-62
2022/03/04 03:17:22;;;;;;;21.55;9.57;;;;;;;;;;5054101;28;20059;-61
2022/03/04 03:19:48;;;;;;;22.55;10.10;;;;;;;;;;5054111;28;20021;-60
2022/03/04 03:22:16;;;;;;;22.48;10.43;;;;;;;;;;5054328;28;20033;-61
2022/03/04 03:24:43;;;;;;;23.38;10.40;;;;;;;;;;5054470;28;20013;-60
2022/03/04 03:27:09;;;;;;;21.70;9.90;;;;;;;;;;5053952;28;20029;-60
2022/03/04 03:29:35;;;;;;;21.60;9.38;;;;;;;;;;5036273;28;20443;-65
2022/03/04 03:32:01;;;;;;;22.48;9.75;;;;;;;;;;5053841;28;20025;-60
2022/03/04 03:34:27;;;;;;;21.75;10.07;;;;;;;;;;5053703;28;20048;-63
2022/03/04 03:36:53;;;;;;;21.23;9.48;;;;;;;;;;5053982;28;20128;-63
2022/03/04 03:39:19;;;;;;;21.63;10.00;;;;;;;;;;5054125;28;20032;-60
2022/03/04 03:41:45;;;;;;;22.38;10.30;;;;;;;;;;5053611;28;20100;-60
2022/03/04 03:44:11;;;;;;;22.80;10.35;;;;;;;;;;5053423;28;20110;-59
2022/03/04 03:46:37;;;;;;;22.27;10.50;;;;;;;;;;5053614;28;20359;-61
2022/03/04 03:49:04;;;;;;;23.52;10.18;;;;;;;;;;5054156;28;20061;-61
2022/03/04 03:51:30;;;;;;;22.33;9.98;;;;;;;;;;5053469;28;20107;-60
2022/03/04 03:53:56;;;;;;;21.67;9.77;;;;;;;;;;5035787;28;20339;-64
2022/03/04 03:56:22;;;;;;;22.17;10.02;;;;;;;;;;5053715;28;20465;-62
2022/03/04 03:58:48;;;;;;;24.05;9.88;;;;;;;;;;5053064;28;20027;-60
2022/03/04 04:01:14;;;;;;;23.13;10.00;;;;;;;;;;5053351;28;20082;-64
2022/03/04 04:03:40;;;;;;;22.00;9.77;;;;;;;;;;5053575;28;20033;-69
2022/03/04 04:06:07;;;;;;;22.50;9.60;;;;;;;;;;5053454;28;20029;-67
2022/03/04 04:08:33;;;;;;;23.60;10.18;;;;;;;;;;5053424;28;20025;-62
2022/03/04 04:10:59;;;;;;;21.33;9.82;;;;;;;;;;5053507;28;20440;-67
2022/03/04 04:13:25;;;;;;;23.38;9.90;;;;;;;;;;5053422;28;20021;-66
2022/03/04 04:15:51;;;;;;;22.10;9.88;;;;;;;;;;5052817;28;20025;-63
2022/03/04 04:18:17;;;;;;;21.42;9.85;;;;;;;;;;5053202;28;20390;-63
2022/03/04 04:20:43;;;;;;;20.92;9.45;;;;;;;;;;5053502;28;20025;-60
2022/03/04 04:23:09;;;;;;;22.60;10.10;;;;;;;;;;5052829;28;20032;-66
2022/03/04 04:25:35;;;;;;;23.58;10.27;;;;;;;;;;5053349;28;20029;-60
2022/03/04 04:28:01;;;;;;;21.75;9.48;;;;;;;;;;5053162;28;20025;-60
2022/03/04 04:30:29;;;;;;;23.02;10.23;;;;;;;;;;5052582;28;20028;-60
2022/03/04 04:32:55;;;;;;;22.75;10.63;;;;;;;;;;5052883;28;20067;-60
2022/03/04 04:35:21;;;;;;;21.63;10.20;;;;;;;;;;5053172;28;20489;-60
2022/03/04 04:37:47;;;;;;;22.48;10.13;;;;;;;;;;5053099;28;20097;-64
2022/03/04 04:40:13;;;;;;;21.50;9.82;;;;;;;;;;5052922;28;20025;-64
2022/03/04 04:42:39;;;;;;;22.30;9.57;;;;;;;;;;5052715;28;20037;-62
2022/03/04 04:45:06;;;;;;;22.30;9.93;;;;;;;;;;5052709;28;20025;-63
2022/03/04 04:47:32;;;;;;;21.63;9.82;;;;;;;;;;5052685;28;20029;-67
2022/03/04 04:49:58;;;;;;;22.73;9.40;;;;;;;;;;5052907;28;20021;-66
2022/03/04 04:52:24;;;;;;;25.23;9.35;;;;;;;;;;5034408;28;20426;-61
2022/03/04 04:54:50;;;;;;;21.92;9.73;;;;;;;;;;5052330;28;20390;-64
2022/03/04 04:57:16;;;;;;;21.08;9.50;;;;;;;;;;5052500;28;20477;-67
2022/03/04 04:59:42;;;;;;;22.25;10.00;;;;;;;;;;5052807;28;20048;-66
2022/03/04 05:02:08;;;;;;;22.13;10.05;;;;;;;;;;5052322;28;20561;-65
2022/03/04 05:04:34;;;;;;;22.02;9.90;;;;;;;;;;5052746;28;20104;-63
2022/03/04 05:07:00;;;;;;;22.02;10.05;;;;;;;;;;5052646;28;20040;-60
2022/03/04 05:09:26;;;;;;;22.73;9.60;;;;;;;;;;5052502;28;20104;-64
2022/03/04 05:11:52;;;;;;;21.60;9.45;;;;;;;;;;5052302;28;20546;-66
2022/03/04 05:14:18;;;;;;;21.92;9.60;;;;;;;;;;5052550;28;20100;-66
2022/03/04 05:16:45;;;;;;;22.27;9.60;;;;;;;;;;5052550;28;20440;-60
2022/03/04 05:19:11;;;;;;;21.90;9.48;;;;;;;;;;5052687;28;20036;-61
2022/03/04 05:21:37;;;;;;;21.27;9.73;;;;;;;;;;5052588;28;20028;-66
2022/03/04 05:24:06;;;;;;;22.50;9.85;;;;;;;;;;5052466;28;20116;-61
2022/03/04 05:26:34;;;;;;;21.17;9.02;;;;;;;;;;5052481;28;20079;-61
2022/03/04 05:29:01;;;;;;;21.90;9.38;;;;;;;;;;5052287;28;20025;-66
2022/03/04 05:31:27;;;;;;;22.02;9.30;;;;;;;;;;5052557;28;20417;-65
2022/03/04 05:33:54;;;;;;;23.33;9.90;;;;;;;;;;5052253;28;20021;-62
2022/03/04 05:36:20;;;;;;;21.95;9.30;;;;;;;;;;5052082;28;20090;-60
2022/03/04 05:38:46;;;;;;;21.13;9.50;;;;;;;;;;5052409;28;20029;-61
2022/03/04 05:41:12;;;;;;;22.35;9.57;;;;;;;;;;5051896;28;20037;-60
2022/03/04 05:43:39;;;;;;;22.02;9.40;;;;;;;;;;5052469;28;20103;-63
2022/03/04 05:46:06;;;;;;;25.30;9.57;;;;;;;;;;5052690;28;20108;-61
2022/03/04 05:48:32;;;;;;;21.85;9.50;;;;;;;;;;5052342;28;20486;-60
2022/03/04 05:50:58;;;;;;;21.75;9.65;;;;;;;;;;5052654;28;20025;-61
2022/03/04 05:53:24;;;;;;;21.80;9.75;;;;;;;;;;5052177;28;20035;-60
2022/03/04 05:55:50;;;;;;;22.98;9.65;;;;;;;;;;5052187;28;20107;-65
2022/03/04 05:58:16;;;;;;;22.20;10.13;;;;;;;;;;5052090;28;20437;-61
2022/03/04 06:00:42;;;;;;;21.20;9.15;;;;;;;;;;5051979;28;20025;-59
2022/03/04 06:03:09;;;;;;;22.50;9.48;;;;;;;;;;5052543;28;20108;-62
2022/03/04 06:05:35;;;;;;;22.00;9.32;;;;;;;;;;5054790;28;20444;-59
2022/03/04 06:08:01;;;;;;;23.08;9.77;;;;;;;;;;5055897;28;20474;-61
2022/03/04 06:10:28;;;;;;;22.63;9.70;;;;;;;;;;5037498;28;20028;-60
2022/03/04 06:12:54;;;;;;;21.15;9.10;;;;;;;;;;5055790;28;20028;-63
2022/03/04 06:15:20;;;;;;;21.52;9.48;;;;;;;;;;5055272;28;20087;-66
2022/03/04 06:17:49;;;;;;;21.55;8.95;;;;;;;;;;5055471;28;20047;-60
2022/03/04 06:20:16;;;;;;;21.75;9.10;;;;;;;;;;5055434;28;20021;-65
2022/03/04 06:22:42;;;;;;;21.00;9.35;;;;;;;;;;5055297;28;20029;-64
2022/03/04 06:25:10;;;;;;;23.15;9.52;;;;;;;;;;5054983;28;20067;-66
2022/03/04 06:27:36;;;;;;;21.98;9.60;;;;;;;;;;5055258;28;20021;-66
2022/03/04 06:30:03;;;;;;;22.00;9.48;;;;;;;;;;5055400;28;20024;-63
2022/03/04 06:32:29;;;;;;;22.52;9.65;;;;;;;;;;5053361;28;20108;-66
2022/03/04 06:34:55;;;;;;;21.20;9.07;;;;;;;;;;5055119;28;20531;-62
2022/03/04 06:37:21;;;;;;;21.58;8.88;;;;;;;;;;5054811;28;20116;-66
2022/03/04 06:39:47;;;;;;;22.25;9.32;;;;;;;;;;5054839;28;20036;-66
2022/03/04 06:42:14;;;;;;;21.10;9.00;;;;;;;;;;5054882;28;20398;-60
2022/03/04 06:44:40;;;;;;;23.67;8.90;;;;;;;;;;5055178;28;20025;-60
2022/03/04 06:47:07;;;;;;;24.10;9.57;;;;;;;;;;5053505;28;20106;-66
2022/03/04 06:49:34;;;;;;;21.73;9.45;;;;;;;;;;5054426;28;20017;-62
2022/03/04 06:52:00;;;;;;;22.23;9.20;;;;;;;;;;5055061;28;20385;-60
2022/03/04 06:54:26;;;;;;;22.25;9.00;;;;;;;;;;5054275;28;20021;-65
2022/03/04 06:56:52;;;;;;;22.05;8.95;;;;;;;;;;5054730;28;20044;-62
2022/03/04 06:59:18;;;;;;;21.63;8.65;;;;;;;;;;5053418;28;20025;-60
2022/03/04 07:01:44;;;;;;;21.05;8.40;;;;;;;;;;5054151;28;20031;-65
2022/03/04 07:04:10;;;;;;;21.55;8.57;;;;;;;;;;5054843;28;20021;-60
2022/03/04 07:06:36;;;;;;;25.17;8.95;;;;;;;;;;5054485;28;20447;-67
2022/03/04 07:09:02;;;;;;;21.75;8.48;;;;;;;;;;5054356;28;20029;-61
2022/03/04 07:11:28;;;;;;;24.98;9.25;;;;;;;;;;5050457;28;20386;-66
2022/03/04 07:13:54;;;;;;;23.83;9.23;;;;;;;;;;5042962;28;20041;-64
2022/03/04 07:16:20;;;;;;;21.40;8.65;;;;;;;;;;5045317;28;20044;-63
2022/03/04 07:18:46;;;;;;;21.60;8.93;;;;;;;;;;5052181;28;20020;-62
2022/03/04 07:21:13;;;;;;;22.73;8.95;;;;;;;;;;5053952;28;20512;-61
2022/03/04 07:23:39;;;;;;;21.80;8.82;;;;;;;;;;5054047;28;20048;-66
2022/03/04 07:26:08;;;;;;;20.83;8.70;;;;;;;;;;5053882;28;20138;-61
2022/03/04 07:28:34;;;;;;;21.33;8.93;;;;;;;;;;5054121;28;20524;-61
2022/03/04 07:31:00;;;;;;;21.83;8.45;;;;;;;;;;5053772;28;20032;-61
2022/03/04 07:33:26;;;;;;;23.50;8.80;;;;;;;;;;5053541;28;20227;-65
2022/03/04 07:35:52;;;;;;;20.85;8.52;;;;;;;;;;5054283;28;20029;-60
2022/03/04 07:38:18;;;;;;;21.85;9.27;;;;;;;;;;5053713;28;20037;-60
2022/03/04 07:40:45;;;;;;;21.80;8.98;;;;;;;;;;5054161;28;20033;-62
2022/03/04 07:43:11;;;;;;;23.33;9.30;;;;;;;;;;5051547;28;20036;-62
2022/03/04 07:45:37;;;;;;;21.67;8.90;;;;;;;;;;5053524;28;20035;-62
2022/03/04 07:48:03;;;;;;;24.35;9.20;;;;;;;;;;5053308;28;20025;-61
2022/03/04 07:50:29;;;;;;;27.83;9.95;;;;;;;;;;5053807;28;20025;-61
2022/03/04 07:52:55;;;;;;;23.85;9.30;;;;;;;;;;5053229;28;20025;-61
2022/03/04 07:55:26;;;;;;;21.83;9.50;;;;;;;;;;5053430;28;20025;-61
2022/03/04 07:57:53;;;;;;;26.45;9.45;;;;;;;;;;5053728;28;20420;-69
2022/03/04 08:00:24;;;;;;;22.90;9.40;;;;;;;;;;5053789;28;20082;-61
2022/03/04 08:02:50;;;;;;;25.45;8.90;;;;;;;;;;5053035;28;20033;-60
2022/03/04 08:05:16;;;;;;;22.38;9.20;;;;;;;;;;5053570;28;20029;-63
2022/03/04 08:07:42;;;;;;;20.85;8.93;;;;;;;;;;5053130;28;20052;-63
2022/03/04 08:10:09;;;;;;;26.42;8.95;;;;;;;;;;5053523;28;20021;-67
2022/03/04 08:12:36;;;;;;;21.33;8.65;;;;;;;;;;5053568;28;20059;-61
2022/03/04 08:15:02;;;;;;;20.73;7.65;;;;;;;;;;5053445;28;20024;-60
2022/03/04 08:17:30;;;;;;;20.70;8.18;;;;;;;;;;5053113;28;20121;-59
2022/03/04 08:19:56;;;;;;;19.85;7.57;;;;;;;;;;5053316;28;20056;-66
2022/03/04 08:22:22;;;;;;;20.25;8.07;;;;;;;;;;5052880;28;20504;-59
2022/03/04 08:24:48;;;;;;;23.35;8.32;;;;;;;;;;5053066;28;20067;-60
2022/03/04 08:27:14;;;;;;;19.30;7.47;;;;;;;;;;5052295;28;20037;-63
2022/03/04 08:29:40;;;;;;;20.67;8.05;;;;;;;;;;5052929;28;20482;-59
2022/03/04 08:32:06;;;;;;;19.83;7.90;;;;;;;;;;5052939;28;20029;-65
2022/03/04 08:34:32;;;;;;;20.30;7.43;;;;;;;;;;5052604;28;20486;-59
2022/03/04 08:36:58;;;;;;;20.88;7.68;;;;;;;;;;5052323;28;20402;-65
2022/03/04 08:39:24;;;;;;;20.20;7.60;;;;;;;;;;5046992;28;20068;-60
2022/03/04 08:41:50;;;;;;;20.83;7.97;;;;;;;;;;5052356;28;20037;-60
2022/03/04 08:44:16;;;;;;;20.98;8.13;;;;;;;;;;5056898;28;20549;-65
2022/03/04 08:46:43;;;;;;;21.52;8.50;;;;;;;;;;5060823;28;20032;-61
2022/03/04 08:49:09;;;;;;;19.83;7.30;;;;;;;;;;5061404;28;20043;-66
2022/03/04 08:51:36;;;;;;;22.10;8.00;;;;;;;;;;5061735;28;20449;-60
2022/03/04 08:54:03;;;;;;;20.55;7.63;;;;;;;;;;5060166;28;20027;-61
2022/03/04 08:56:28;;;;;;;19.58;7.95;;;;;;;;;;5060184;28;20386;-64
2022/03/04 08:58:55;;;;;;;20.33;7.80;;;;;;;;;;5069383;28;20568;-62
2022/03/04 09:01:21;;;;;;;21.05;7.78;;;;;;;;;;5071914;28;20049;-60
2022/03/04 09:03:47;;;;;;;20.20;7.45;;;;;;;;;;5069702;28;20036;-66
2022/03/04 09:06:13;;;;;;;20.75;7.78;;;;;;;;;;5039272;28;20025;-64
2022/03/04 09:08:40;;;;;;;19.40;7.40;;;;;;;;;;5034157;28;20505;-67
2022/03/04 09:11:06;;;;;;;20.55;7.68;;;;;;;;;;5052667;28;20107;-61
2022/03/04 09:13:33;;;;;;;20.30;7.63;;;;;;;;;;5046045;28;20079;-59
2022/03/04 09:16:02;;;;;;;20.17;7.20;;;;;;;;;;5032093;28;20441;-60
2022/03/04 09:18:28;;;;;;;23.23;7.80;;;;;;;;;;5042564;28;20033;-59
2022/03/04 09:20:54;;;;;;;19.98;7.35;;;;;;;;;;5049837;28;20115;-59
2022/03/04 09:23:21;;;;;;;22.35;7.72;;;;;;;;;;5052237;28;20453;-62
2022/03/04 09:25:48;;;;;;;21.30;7.28;;;;;;;;;;5051871;28;20096;-61
2022/03/04 09:28:15;;;;;;;19.25;7.47;;;;;;;;;;5051862;28;20099;-61
2022/03/04 09:30:41;;;;;;;19.75;7.68;;;;;;;;;;5031467;28;20021;-67
2022/03/04 09:33:08;;;;;;;20.55;7.50;;;;;;;;;;5041794;28;20117;-61
2022/03/04 09:35:42;;;;;;;19.85;6.97;;;;;;;;;;5019046;28;20314;-59
2022/03/04 09:38:09;;;;;;;19.75;7.22;;;;;;;;;;5041501;28;20044;-64
2022/03/04 09:40:35;;;;;;;26.05;7.40;;;;;;;;;;5042296;28;20029;-62
2022/03/04 09:43:01;;;;;;;22.42;7.13;;;;;;;;;;5043565;28;20035;-59
2022/03/04 09:45:33;;;;;;;20.65;7.65;;;;;;;;;;5052938;28;20438;-64
2022/03/04 09:48:02;;;;;;;22.73;7.72;;;;;;;;;;5052774;28;20076;-62
2022/03/04 09:50:28;;;;;;;22.33;7.72;;;;;;;;;;5017263;28;20387;-64
2022/03/04 09:52:57;;;;;;;23.00;7.32;;;;;;;;;;5032815;28;20541;-60
2022/03/04 09:55:23;;;;;;;23.05;8.43;;;;;;;;;;5051879;28;20021;-62
2022/03/04 09:57:49;;;;;;;21.13;7.88;;;;;;;;;;5053351;28;20112;-62
2022/03/04 10:00:16;;;;;;;22.55;8.02;;;;;;;;;;5057006;28;20152;-60
2022/03/04 10:02:42;;;;;;;22.02;7.93;;;;;;;;;;5055288;28;20021;-59
2022/03/04 10:05:08;;;;;;;20.23;8.02;;;;;;;;;;5064635;28;20017;-64
2022/03/04 10:07:53;;;;;;;21.05;7.93;;;;;;;;;;5062752;28;20029;-60
2022/03/04 10:10:22;;;;;;;21.25;8.10;;;;;;;;;;5060979;28;20474;-60
2022/03/04 10:12:51;;;;;;;21.92;7.68;;;;;;;;;;5058658;28;20055;-63
2022/03/04 10:15:17;;;;;;;25.63;10.32;;;;;;;;;;5037480;28;20034;-62
2022/03/04 10:17:55;;;;;;;26.13;11.27;;;;;;;;;;5051816;28;20033;-61
2022/03/04 10:20:21;;;;;;;27.67;12.75;;;;;;;;;;5037368;28;20032;-66
2022/03/04 10:22:47;;;;;;;25.83;12.18;;;;;;;;;;5049309;28;20033;-63
2022/03/04 10:25:15;;;;;;;29.30;12.40;;;;;;;;;;5036042;28;20480;-65
2022/03/04 10:27:42;;;;;;;26.50;13.13;;;;;;;;;;5048252;28;20032;-61
2022/03/04 10:30:08;;;;;;;29.10;12.52;;;;;;;;;;5049462;28;20028;-66
2022/03/04 10:32:34;;;;;;;32.35;13.35;;;;;;;;;;5054110;28;20033;-64
2022/03/04 10:35:00;;;;;;;27.35;11.52;;;;;;;;;;5054586;28;20025;-67
2022/03/04 10:37:41;;;;;;;31.63;13.15;;;;;;;;;;5058444;28;20513;-66
2022/03/04 10:40:10;;;;;;;28.52;12.85;;;;;;;;;;5058973;28;20025;-62
2022/03/04 10:42:45;;;;;;;30.88;14.77;;;;;;;;;;5061432;28;20477;-64
2022/03/04 10:45:13;;;;;;;30.75;13.57;;;;;;;;;;5056859;28;20047;-64
2022/03/04 10:47:40;;;;;;;26.30;12.63;;;;;;;;;;5057635;28;20041;-64
2022/03/04 10:50:06;;;;;;;27.80;12.90;;;;;;;;;;5062164;28;20037;-67
2022/03/04 10:52:32;;;;;;;28.10;12.75;;;;;;;;;;5054305;28;20024;-62
2022/03/04 10:54:58;;;;;;;30.90;12.45;;;;;;;;;;5050701;28;20029;-62
2022/03/04 10:57:24;;;;;;;33.33;12.52;;;;;;;;;;5054194;28;20032;-60
2022/03/04 10:59:57;;;;;;;29.77;13.90;;;;;;;;;;5057374;28;20025;-59
2022/03/04 11:02:43;;;;;;;26.65;12.70;;;;;;;;;;5036499;28;20493;-58
2022/03/04 11:05:09;;;;;;;28.23;12.07;;;;;;;;;;5034433;28;20033;-60
2022/03/04 11:07:36;;;;;;;23.83;10.95;;;;;;;;;;5034293;28;20390;-60
2022/03/04 11:10:03;;;;;;;27.55;12.15;;;;;;;;;;5037239;28;20077;-61
2022/03/04 11:12:29;;;;;;;28.65;11.50;;;;;;;;;;5034325;28;20029;-58
2022/03/04 11:14:57;;;;;;;24.92;11.82;;;;;;;;;;5038701;28;20161;-58
2022/03/04 11:17:24;;;;;;;26.52;11.60;;;;;;;;;;5051544;28;20051;-59
2022/03/04 11:19:51;;;;;;;25.15;11.32;;;;;;;;;;5043257;28;20028;-58
2022/03/04 11:22:17;;;;;;;24.90;11.60;;;;;;;;;;5045510;28;20098;-62
2022/03/04 11:24:43;;;;;;;24.30;11.27;;;;;;;;;;5044000;28;20027;-59
2022/03/04 11:27:10;;;;;;;25.60;11.75;;;;;;;;;;5040847;28;20378;-60
2022/03/04 11:29:37;;;;;;;23.85;11.35;;;;;;;;;;5052132;28;20525;-59
2022/03/04 11:32:06;;;;;;;25.58;11.35;;;;;;;;;;5047157;28;20037;-60
2022/03/04 11:34:36;;;;;;;24.38;10.70;;;;;;;;;;5045062;28;20028;-60
2022/03/04 11:37:03;;;;;;;26.13;11.50;;;;;;;;;;5039531;28;20046;-60
2022/03/04 11:39:29;;;;;;;24.33;11.00;;;;;;;;;;5032119;28;20061;-68
2022/03/04 11:41:55;;;;;;;25.00;11.32;;;;;;;;;;5046665;28;20041;-59
2022/03/04 11:44:25;;;;;;;23.70;10.80;;;;;;;;;;5047050;28;20363;-60
2022/03/04 11:46:51;;;;;;;24.25;10.60;;;;;;;;;;5047547;28;20041;-59
2022/03/04 11:49:25;;;;;;;23.42;10.15;;;;;;;;;;5048945;28;20017;-60
2022/03/04 11:52:09;;;;;;;23.90;10.63;;;;;;;;;;5051088;28;20021;-60
2022/03/04 11:54:36;;;;;;;23.50;10.80;;;;;;;;;;5051791;28;20039;-60
2022/03/04 11:57:15;;;;;;;23.05;11.02;;;;;;;;;;5032995;28;20032;-60
2022/03/04 11:59:48;;;;;;;23.20;10.00;;;;;;;;;;5047960;28;20020;-61
2022/03/04 12:02:21;;;;;;;23.88;10.55;;;;;;;;;;5048253;28;20033;-60
2022/03/04 12:04:49;;;;;;;22.95;10.27;;;;;;;;;;5044756;28;20139;-62
2022/03/04 12:07:15;;;;;;;27.20;10.65;;;;;;;;;;5046550;28;20025;-65
2022/03/04 12:09:49;;;;;;;23.98;10.48;;;;;;;;;;5040854;28;20048;-61
2022/03/04 12:12:21;;;;;;;24.23;10.95;;;;;;;;;;5031818;28;20045;-61
2022/03/04 12:14:54;;;;;;;25.83;10.32;;;;;;;;;;5032575;28;20104;-60
2022/03/04 12:17:21;;;;;;;25.20;10.68;;;;;;;;;;5032797;28;20034;-60
2022/03/04 12:19:48;;;;;;;24.05;10.93;;;;;;;;;;5014888;28;20080;-62
2022/03/04 12:22:15;;;;;;;24.83;11.40;;;;;;;;;;5032409;28;20057;-61
2022/03/04 12:24:51;;;;;;;23.85;10.93;;;;;;;;;;5032650;28;20508;-64
2022/03/04 12:27:34;;;;;;;23.48;11.10;;;;;;;;;;5014643;28;20117;-63
2022/03/04 12:30:14;;;;;;;23.23;10.48;;;;;;;;;;5032045;28;20536;-67
2022/03/04 12:32:50;;;;;;;22.95;10.70;;;;;;;;;;5033063;28;20037;-67
2022/03/04 12:35:17;;;;;;;24.58;10.50;;;;;;;;;;5032622;28;20487;-65
2022/03/04 12:37:43;;;;;;;23.55;11.40;;;;;;;;;;5032513;28;20037;-65
2022/03/04 12:40:09;;;;;;;22.20;10.15;;;;;;;;;;5032333;28;20442;-59
2022/03/04 12:42:35;;;;;;;24.45;10.07;;;;;;;;;;5031826;28;20104;-63
2022/03/04 12:45:01;;;;;;;22.30;9.95;;;;;;;;;;5014540;28;20136;-67
2022/03/04 12:47:28;;;;;;;21.92;9.88;;;;;;;;;;5032540;28;20021;-64
2022/03/04 12:49:54;;;;;;;22.38;9.45;;;;;;;;;;5014322;28;20075;-60
2022/03/04 12:52:20;;;;;;;25.13;10.30;;;;;;;;;;5032306;28;20039;-62
2022/03/04 12:54:47;;;;;;;21.63;9.60;;;;;;;;;;5040686;28;20024;-61
2022/03/04 12:57:13;;;;;;;22.30;9.43;;;;;;;;;;5047844;28;20087;-67
2022/03/04 12:59:46;;;;;;;23.88;10.23;;;;;;;;;;5049671;28;20021;-66
2022/03/04 13:02:12;;;;;;;22.20;10.00;;;;;;;;;;5047473;28;20025;-59
2022/03/04 13:04:39;;;;;;;25.20;10.13;;;;;;;;;;5049930;28;20045;-64
2022/03/04 13:07:06;;;;;;;22.58;10.35;;;;;;;;;;5046127;28;20040;-61
2022/03/04 13:09:32;;;;;;;23.52;10.95;;;;;;;;;;5041483;28;20081;-60
2022/03/04 13:12:05;;;;;;;22.95;10.13;;;;;;;;;;5049858;28;20489;-59
2022/03/04 13:14:33;;;;;;;22.80;10.38;;;;;;;;;;5049052;28;20029;-59
2022/03/04 13:17:00;;;;;;;23.50;10.52;;;;;;;;;;5050770;28;20079;-60
2022/03/04 13:19:29;;;;;;;26.27;10.82;;;;;;;;;;5052262;28;20056;-67
2022/03/04 13:22:10;;;;;;;24.55;10.20;;;;;;;;;;5054791;28;20478;-59
2022/03/04 13:24:39;;;;;;;24.05;10.68;;;;;;;;;;5055332;28;20021;-65
2022/03/04 13:27:05;;;;;;;22.63;10.23;;;;;;;;;;5055889;28;20397;-68
2022/03/04 13:29:31;;;;;;;24.23;11.10;;;;;;;;;;5049988;28;20013;-65
2022/03/04 13:32:04;;;;;;;24.38;11.07;;;;;;;;;;5039075;28;20021;-61
2022/03/04 13:34:31;;;;;;;26.60;10.75;;;;;;;;;;5035058;28;20018;-67
2022/03/04 13:37:00;;;;;;;26.83;11.02;;;;;;;;;;5049334;28;20064;-64
2022/03/04 13:39:33;;;;;;;24.90;11.13;;;;;;;;;;5054561;28;20031;-59
2022/03/04 13:42:17;;;;;;;26.00;12.07;;;;;;;;;;5041415;28;20036;-59
2022/03/04 13:44:50;;;;;;;26.20;11.13;;;;;;;;;;5038818;28;20071;-59
2022/03/04 13:47:27;;;;;;;27.17;12.20;;;;;;;;;;5048804;28;20025;-59
2022/03/04 13:49:53;;;;;;;23.27;10.75;;;;;;;;;;5052164;28;20013;-65
2022/03/04 13:52:19;;;;;;;23.23;10.93;;;;;;;;;;5050640;28;20025;-60
2022/03/04 13:54:46;;;;;;;24.55;10.65;;;;;;;;;;5052902;28;20033;-58
2022/03/04 13:57:31;;;;;;;23.85;10.80;;;;;;;;;;5051602;28;20389;-60
2022/03/04 14:00:01;;;;;;;24.17;10.57;;;;;;;;;;5052585;28;20035;-59
2022/03/04 14:02:28;;;;;;;24.67;11.32;;;;;;;;;;5051024;28;20025;-58
2022/03/04 14:04:55;;;;;;;24.60;11.07;;;;;;;;;;5052574;28;20021;-63
2022/03/04 14:07:28;;;;;;;23.63;10.88;;;;;;;;;;5053739;28;20021;-66
2022/03/04 14:09:55;;;;;;;24.40;10.63;;;;;;;;;;5052713;28;20055;-63
2022/03/04 14:12:22;;;;;;;25.20;12.05;;;;;;;;;;5035288;28;20029;-61
2022/03/04 14:14:49;;;;;;;25.50;10.90;;;;;;;;;;5054448;28;20017;-58
2022/03/04 14:17:15;;;;;;;24.52;11.05;;;;;;;;;;5053858;28;20067;-60
2022/03/04 14:19:41;;;;;;;27.55;10.57;;;;;;;;;;5053070;28;20021;-61
2022/03/04 14:22:07;;;;;;;23.42;10.18;;;;;;;;;;5050601;28;20029;-67
2022/03/04 14:24:34;;;;;;;26.30;11.02;;;;;;;;;;5037044;28;20013;-63